Time;durP1;ratioP1;P1;durP2;ratioP2;P2;SDS_P1;SDS_P2;PMS_P1;PMS_P2;Temp;Humidity;BMP_temperature;BMP_pressure;BME280_temperature;BME280_humidity;BME280_pressure;Samples;Min_cycle;Max_cycle;Signal;HPM_P1;HPM_P2
2023/09/24 00:01:38;;;;;;;4.00;1.63;;;15.80;65.20;17.60;102094.00;;;;5031085;28;20266;-78
2023/09/24 00:04:06;;;;;;;4.35;2.03;;;15.80;65.20;17.50;102095.00;;;;5025189;28;20200;-78
2023/09/24 00:06:33;;;;;;;3.15;2.30;;;15.70;65.10;17.60;102092.00;;;;5031792;28;20208;-78
2023/09/24 00:09:00;;;;;;;5.35;2.08;;;15.70;65.20;17.50;102091.00;;;;5030240;28;20196;-78
2023/09/24 00:11:27;;;;;;;2.58;1.90;;;15.70;65.30;17.50;102098.00;;;;5031680;28;20629;-77
2023/09/24 00:13:54;;;;;;;2.60;2.40;;;15.70;65.30;17.50;102102.00;;;;5030354;28;20200;-77
2023/09/24 00:16:21;;;;;;;3.17;2.28;;;15.70;65.40;17.50;102098.00;;;;5031445;28;20206;-77
2023/09/24 00:18:48;;;;;;;2.78;2.25;;;15.70;65.40;17.50;102104.00;;;;5031942;28;20192;-77
2023/09/24 00:21:18;;;;;;;3.13;2.30;;;15.60;65.30;17.40;102096.00;;;;5030875;28;20223;-77
2023/09/24 00:23:45;;;;;;;2.53;2.28;;;15.60;65.40;17.40;102108.00;;;;5031685;28;20270;-77
2023/09/24 00:26:12;;;;;;;2.38;2.00;;;15.60;65.40;17.40;102114.00;;;;5031827;28;20247;-77
2023/09/24 00:28:39;;;;;;;3.80;2.60;;;15.50;65.30;17.40;102113.00;;;;5031669;28;20199;-77
2023/09/24 00:31:08;;;;;;;2.90;1.92;;;15.60;65.40;17.40;102118.00;;;;5024345;28;20212;-77
2023/09/24 00:33:35;;;;;;;3.95;2.22;;;15.50;65.40;17.40;102110.00;;;;5031196;28;20227;-77
2023/09/24 00:36:02;;;;;;;11.93;2.90;;;15.50;65.40;17.40;102115.00;;;;5028325;28;20205;-77
2023/09/24 00:38:30;;;;;;;3.95;2.63;;;15.50;65.40;17.30;102107.00;;;;5032591;28;20207;-77
2023/09/24 00:40:57;;;;;;;4.20;3.05;;;15.50;65.40;17.30;102116.00;;;;5031522;28;20243;-77
2023/09/24 00:43:30;;;;;;;4.88;3.40;;;15.50;65.50;17.30;102125.00;;;;5031934;28;20546;-78
2023/09/24 00:45:59;;;;;;;5.07;3.40;;;15.50;65.50;17.30;102125.00;;;;5030424;28;20196;-77
2023/09/24 00:48:30;;;;;;;5.28;3.38;;;15.40;65.40;17.30;102111.00;;;;5031035;28;20199;-77
2023/09/24 00:51:00;;;;;;;4.03;3.15;;;15.40;65.40;17.30;102117.00;;;;5031420;28;20200;-77
2023/09/24 00:53:31;;;;;;;3.95;2.63;;;15.40;65.50;17.20;102118.00;;;;5031439;28;20196;-77
2023/09/24 00:55:59;;;;;;;3.00;2.58;;;15.40;65.50;17.20;102119.00;;;;5022175;28;20226;-77
2023/09/24 00:58:27;;;;;;;3.58;2.78;;;15.40;65.50;17.20;102118.00;;;;5029611;28;20200;-77
2023/09/24 01:00:57;;;;;;;4.03;2.38;;;15.40;65.50;17.20;102130.00;;;;5030704;28;20220;-77
2023/09/24 01:03:24;;;;;;;5.40;2.60;;;15.40;65.40;17.20;102132.00;;;;5031092;28;20197;-77
2023/09/24 01:05:52;;;;;;;4.03;2.85;;;15.40;66.20;17.20;102130.00;;;;5030790;28;20633;-77
2023/09/24 01:08:22;;;;;;;4.57;2.33;;;15.30;65.40;17.20;102125.00;;;;5031017;28;20609;-77
2023/09/24 01:10:52;;;;;;;4.80;2.65;;;15.30;65.40;17.10;102116.00;;;;5030769;28;20228;-77
2023/09/24 01:13:20;;;;;;;3.53;2.50;;;15.30;65.40;17.10;102135.00;;;;5030833;28;20349;-77
2023/09/24 01:15:48;;;;;;;7.82;2.67;;;15.30;65.40;17.10;102115.00;;;;5030605;28;20942;-77
2023/09/24 01:18:16;;;;;;;3.42;2.40;;;15.30;65.40;17.10;102112.00;;;;5029998;28;20246;-77
2023/09/24 01:20:43;;;;;;;5.50;2.40;;;15.30;65.50;17.10;102121.00;;;;5029964;28;20238;-77
2023/09/24 01:23:13;;;;;;;5.03;2.22;;;15.30;65.50;17.10;102117.00;;;;5029972;28;20574;-77
2023/09/24 01:25:42;;;;;;;4.43;3.03;;;15.20;65.50;17.10;102111.00;;;;5029524;28;20196;-77
2023/09/24 01:28:10;;;;;;;2.70;2.40;;;15.20;65.60;17.10;102120.00;;;;5029832;28;20201;-77
2023/09/24 01:30:38;;;;;;;3.38;2.90;;;15.20;65.60;17.10;102114.00;;;;5030597;28;20262;-77
2023/09/24 01:33:06;;;;;;;4.00;2.42;;;15.20;65.70;17.00;102110.00;;;;5028162;28;20207;-76
2023/09/24 01:35:36;;;;;;;4.07;2.42;;;15.20;65.60;17.00;102108.00;;;;5024969;28;20201;-77
2023/09/24 01:38:05;;;;;;;4.38;2.80;;;15.20;65.60;17.00;102103.00;;;;5027412;28;20211;-77
2023/09/24 01:40:37;;;;;;;3.53;2.77;;;15.20;65.70;17.00;102114.00;;;;5030062;28;20200;-77
2023/09/24 01:43:07;;;;;;;3.72;3.00;;;15.10;65.60;17.00;102107.00;;;;5029354;28;20204;-77
2023/09/24 01:45:40;;;;;;;3.90;2.70;;;15.10;65.60;17.00;102112.00;;;;5028596;28;20201;-77
2023/09/24 01:48:07;;;;;;;3.03;2.60;;;15.10;65.60;17.00;102118.00;;;;5028171;28;20203;-77
2023/09/24 01:50:36;;;;;;;3.40;2.55;;;15.10;66.30;17.00;102120.00;;;;5028848;28;20200;-77
2023/09/24 01:53:05;;;;;;;3.33;2.97;;;15.10;65.70;16.90;102118.00;;;;5026825;28;20204;-77
2023/09/24 01:55:36;;;;;;;4.57;2.95;;;15.10;65.80;16.90;102127.00;;;;5027433;28;20200;-77
2023/09/24 01:58:04;;;;;;;3.88;2.70;;;15.10;65.70;16.90;102126.00;;;;5028144;28;20204;-77
2023/09/24 02:00:31;;;;;;;3.70;2.38;;;15.10;65.70;16.90;102127.00;;;;5028826;28;20330;-77
2023/09/24 02:03:05;;;;;;;3.70;3.10;;;15.00;65.60;16.90;102125.00;;;;5028195;28;20687;-77
2023/09/24 02:05:33;;;;;;;4.55;2.63;;;15.00;65.60;16.90;102122.00;;;;5027842;28;20659;-77
2023/09/24 02:08:00;;;;;;;6.65;3.10;;;15.00;65.60;16.90;102116.00;;;;5028363;28;20262;-77
2023/09/24 02:10:27;;;;;;;4.15;2.45;;;15.00;65.60;16.80;102116.00;;;;5012184;28;20239;-77
2023/09/24 02:12:55;;;;;;;4.20;2.80;;;15.00;65.60;16.80;102111.00;;;;5027292;28;20203;-77
2023/09/24 02:15:23;;;;;;;3.80;2.97;;;15.00;65.60;16.80;102120.00;;;;5028809;28;20204;-77
2023/09/24 02:17:50;;;;;;;5.95;2.55;;;15.00;65.60;16.80;102115.00;;;;5026046;28;20223;-77
2023/09/24 02:20:25;;;;;;;5.32;2.55;;;14.90;65.50;16.80;102127.00;;;;5026725;28;20284;-77
2023/09/24 02:22:56;;;;;;;4.22;2.88;;;14.90;65.50;16.80;102120.00;;;;5027572;28;20235;-77
2023/09/24 02:25:24;;;;;;;3.55;2.78;;;14.90;65.60;16.80;102128.00;;;;5024367;28;20200;-77
2023/09/24 02:27:52;;;;;;;4.78;2.90;;;14.90;65.60;16.70;102129.00;;;;5028899;28;20207;-77
2023/09/24 02:30:22;;;;;;;6.43;3.00;;;14.90;65.60;16.70;102126.00;;;;5028289;28;20693;-77
2023/09/24 02:32:50;;;;;;;7.03;2.88;;;14.90;65.60;16.70;102130.00;;;;5028785;28;20212;-76
2023/09/24 02:35:18;;;;;;;5.03;3.28;;;14.90;65.70;16.70;102127.00;;;;5024906;28;20200;-77
2023/09/24 02:37:48;;;;;;;4.45;2.92;;;14.90;65.70;16.70;102133.00;;;;5027276;28;20196;-77
2023/09/24 02:40:21;;;;;;;5.35;2.95;;;14.80;65.60;16.70;102134.00;;;;5028853;28;20251;-77
2023/09/24 02:42:49;;;;;;;4.65;2.78;;;14.80;65.70;16.70;102135.00;;;;5027365;28;20319;-77
2023/09/24 02:45:17;;;;;;;4.82;2.78;;;14.80;65.70;16.70;102135.00;;;;5028395;28;20199;-77
2023/09/24 02:47:47;;;;;;;4.88;3.30;;;14.80;65.80;16.60;102129.00;;;;5027615;28;20254;-77
2023/09/24 02:50:14;;;;;;;6.50;3.38;;;14.80;65.90;16.60;102131.00;;;;5028757;28;20203;-77
2023/09/24 02:52:42;;;;;;;3.72;2.80;;;14.80;65.90;16.60;102135.00;;;;5028428;28;20200;-77
2023/09/24 02:55:12;;;;;;;3.47;3.17;;;14.80;65.90;16.60;102128.00;;;;5028464;28;20204;-77
2023/09/24 02:57:39;;;;;;;4.60;2.97;;;14.80;65.90;16.60;102134.00;;;;5028270;28;20208;-77
2023/09/24 03:00:15;;;;;;;3.72;3.00;;;14.80;65.90;16.60;102140.00;;;;5028114;28;20195;-77
2023/09/24 03:02:42;;;;;;;4.75;3.10;;;14.80;65.90;16.60;102138.00;;;;5028821;28;20227;-77
2023/09/24 03:05:12;;;;;;;3.70;3.00;;;14.70;65.90;16.60;102141.00;;;;5028454;28;20207;-77
2023/09/24 03:07:40;;;;;;;4.35;2.92;;;14.70;65.80;16.60;102138.00;;;;5029246;28;20529;-77
2023/09/24 03:10:10;;;;;;;3.45;2.97;;;14.70;65.80;16.60;102140.00;;;;5027950;28;20255;-77
2023/09/24 03:12:37;;;;;;;4.05;3.10;;;14.70;65.80;16.60;102140.00;;;;5027064;28;20210;-77
2023/09/24 03:15:06;;;;;;;3.78;2.83;;;14.70;65.80;16.50;102151.00;;;;5024892;28;20204;-77
2023/09/24 03:17:34;;;;;;;5.93;3.47;;;14.70;65.90;16.50;102148.00;;;;5028630;28;20192;-77
2023/09/24 03:20:11;;;;;;;4.70;2.95;;;14.70;65.90;16.50;102149.00;;;;5028247;28;20196;-76
2023/09/24 03:22:39;;;;;;;3.20;2.72;;;14.70;65.90;16.50;102159.00;;;;5027621;28;20230;-76
2023/09/24 03:25:09;;;;;;;4.15;2.42;;;14.70;65.80;16.50;102148.00;;;;5028005;28;20263;-77
2023/09/24 03:27:38;;;;;;;4.15;3.20;;;14.70;65.90;16.50;102148.00;;;;5028343;28;20502;-77
2023/09/24 03:30:08;;;;;;;3.42;2.70;;;14.70;65.80;16.50;102157.00;;;;5028301;28;20215;-77
2023/09/24 03:32:36;;;;;;;6.63;4.00;;;14.60;65.80;16.50;102159.00;;;;5027934;28;20200;-77
2023/09/24 03:35:06;;;;;;;5.00;3.13;;;14.70;65.90;16.50;102162.00;;;;5025370;28;20197;-77
2023/09/24 03:37:33;;;;;;;3.92;3.13;;;14.60;65.80;16.50;102160.00;;;;5017905;28;20198;-77
2023/09/24 03:40:01;;;;;;;5.20;3.13;;;14.60;65.80;16.40;102162.00;;;;5029258;28;20280;-77
2023/09/24 03:42:28;;;;;;;6.05;4.05;;;14.60;65.90;16.40;102163.00;;;;5026066;28;20327;-77
2023/09/24 03:44:55;;;;;;;3.38;2.83;;;14.60;65.90;16.40;102165.00;;;;5028359;28;20203;-77
2023/09/24 03:47:22;;;;;;;4.90;3.25;;;14.60;65.80;16.40;102173.00;;;;5028206;28;20206;-76
2023/09/24 03:49:49;;;;;;;5.53;3.30;;;14.60;65.80;16.40;102165.00;;;;5028012;28;20195;-76
2023/09/24 03:52:16;;;;;;;3.67;3.28;;;14.50;65.70;16.40;102168.00;;;;5024821;28;20196;-76
2023/09/24 03:54:43;;;;;;;4.47;2.95;;;14.50;65.80;16.40;102169.00;;;;5027677;28;20235;-76
2023/09/24 03:57:11;;;;;;;5.07;2.75;;;14.50;65.80;16.30;102173.00;;;;5028672;28;20210;-76
2023/09/24 03:59:38;;;;;;;6.68;3.33;;;14.50;65.80;16.30;102180.00;;;;5027764;28;20210;-76
2023/09/24 04:02:07;;;;;;;4.57;2.85;;;14.50;65.80;16.30;102182.00;;;;5026943;28;20569;-76
2023/09/24 04:04:35;;;;;;;6.13;3.25;;;14.40;65.70;16.30;102175.00;;;;5024444;28;20196;-76
2023/09/24 04:07:02;;;;;;;5.25;3.17;;;14.50;65.80;16.30;102179.00;;;;5022807;28;20193;-76
2023/09/24 04:09:32;;;;;;;3.58;3.08;;;14.40;66.40;16.30;102179.00;;;;5028356;28;20205;-76
2023/09/24 04:12:00;;;;;;;5.07;2.97;;;14.40;65.80;16.30;102182.00;;;;5021095;28;20192;-76
2023/09/24 04:14:30;;;;;;;7.30;3.40;;;14.40;65.70;16.20;102181.00;;;;5026663;28;20246;-76
2023/09/24 04:16:57;;;;;;;5.53;3.13;;;14.40;65.80;16.20;102181.00;;;;5027288;28;20606;-76
2023/09/24 04:19:24;;;;;;;5.97;3.35;;;14.40;65.70;16.20;102192.00;;;;5027261;28;20192;-76
2023/09/24 04:21:52;;;;;;;3.70;3.03;;;14.40;65.80;16.20;102184.00;;;;5023973;28;20711;-76
2023/09/24 04:24:20;;;;;;;4.43;2.80;;;14.30;65.70;16.20;102188.00;;;;5027783;28;20689;-76
2023/09/24 04:26:47;;;;;;;4.95;3.38;;;14.30;65.80;16.20;102189.00;;;;5028142;28;20275;-76
2023/09/24 04:29:15;;;;;;;4.05;3.30;;;14.30;65.80;16.20;102191.00;;;;5027655;28;20188;-76
2023/09/24 04:31:43;;;;;;;6.00;3.25;;;14.30;65.80;16.10;102195.00;;;;5027871;28;20204;-76
2023/09/24 04:34:12;;;;;;;4.22;3.50;;;14.30;65.80;16.10;102204.00;;;;5027360;28;20207;-76
2023/09/24 04:36:41;;;;;;;4.53;3.88;;;14.30;65.80;16.10;102199.00;;;;5027630;28;20196;-76
2023/09/24 04:39:10;;;;;;;3.97;3.20;;;14.20;65.80;16.10;102202.00;;;;5027982;28;20208;-76
2023/09/24 04:41:39;;;;;;;4.57;3.35;;;14.20;65.70;16.10;102200.00;;;;5022661;28;20288;-76
2023/09/24 04:44:07;;;;;;;3.40;3.08;;;14.20;65.70;16.10;102210.00;;;;5028840;28;20200;-76
2023/09/24 04:46:34;;;;;;;4.28;3.88;;;14.20;65.70;16.10;102205.00;;;;5029094;28;20242;-76
2023/09/24 04:49:04;;;;;;;3.83;2.95;;;14.20;65.80;16.10;102217.00;;;;5029701;28;20188;-76
2023/09/24 04:51:32;;;;;;;4.63;3.22;;;14.20;66.50;16.10;102215.00;;;;5026433;28;20210;-76
2023/09/24 04:54:00;;;;;;;5.80;3.60;;;14.20;65.80;16.00;102204.00;;;;5027592;28;20227;-76
2023/09/24 04:56:27;;;;;;;3.78;3.05;;;14.20;65.80;16.00;102209.00;;;;5030964;28;20662;-76
2023/09/24 04:58:54;;;;;;;4.05;3.53;;;14.20;65.80;16.00;102208.00;;;;5029227;28;20200;-75
2023/09/24 05:01:22;;;;;;;4.18;3.35;;;14.10;65.80;16.00;102215.00;;;;5029112;28;20211;-76
2023/09/24 05:03:50;;;;;;;4.90;3.85;;;14.10;65.80;16.00;102211.00;;;;5028672;28;20274;-75
2023/09/24 05:06:19;;;;;;;3.60;3.13;;;14.10;65.90;16.00;102219.00;;;;5030043;28;20200;-76
2023/09/24 05:08:47;;;;;;;4.07;3.47;;;14.10;65.90;16.00;102216.00;;;;5029452;28;21215;-76
2023/09/24 05:11:14;;;;;;;7.88;3.88;;;14.10;65.90;16.00;102214.00;;;;5028654;28;20232;-77
2023/09/24 05:13:42;;;;;;;4.35;3.65;;;14.10;65.90;16.00;102222.00;;;;5027695;28;20196;-77
2023/09/24 05:16:11;;;;;;;4.97;3.25;;;14.00;65.90;15.90;102213.00;;;;5029916;28;20196;-77
2023/09/24 05:18:38;;;;;;;4.75;3.33;;;14.00;65.90;15.90;102217.00;;;;5030086;28;20196;-76
2023/09/24 05:21:14;;;;;;;3.60;2.95;;;14.00;65.90;15.80;102219.00;;;;5029663;28;20200;-77
2023/09/24 05:23:42;;;;;;;5.93;3.50;;;14.00;65.90;15.90;102222.00;;;;5030216;28;20219;-77
2023/09/24 05:26:12;;;;;;;3.53;3.13;;;14.00;65.90;15.90;102225.00;;;;5029824;28;20898;-77
2023/09/24 05:28:39;;;;;;;4.60;3.58;;;14.00;65.90;15.90;102227.00;;;;5024861;28;20196;-77
2023/09/24 05:31:06;;;;;;;4.18;3.38;;;14.00;65.90;15.90;102224.00;;;;5023514;28;20208;-77
2023/09/24 05:33:33;;;;;;;4.03;3.47;;;14.00;65.90;15.90;102218.00;;;;5030389;28;20200;-77
2023/09/24 05:36:00;;;;;;;3.72;3.40;;;14.00;66.00;15.90;102215.00;;;;5030347;28;20598;-77
2023/09/24 05:38:29;;;;;;;4.70;3.60;;;14.00;65.90;15.90;102225.00;;;;5025514;28;20200;-77
2023/09/24 05:40:57;;;;;;;4.43;3.47;;;14.00;66.00;15.80;102221.00;;;;5028017;28;20239;-77
2023/09/24 05:43:24;;;;;;;4.53;3.55;;;13.90;66.00;15.90;102234.00;;;;5029633;28;20224;-77
2023/09/24 05:45:52;;;;;;;5.43;3.97;;;13.90;66.10;15.90;102242.00;;;;5012308;28;20274;-77
2023/09/24 05:48:19;;;;;;;4.15;3.20;;;13.90;66.10;15.90;102241.00;;;;5027327;28;20570;-77
2023/09/24 05:50:49;;;;;;;4.78;3.47;;;13.90;66.10;15.90;102237.00;;;;5028757;28;20201;-77
2023/09/24 05:53:16;;;;;;;4.20;3.55;;;14.00;66.20;15.90;102243.00;;;;5029759;28;20205;-76
2023/09/24 05:55:53;;;;;;;5.88;3.40;;;13.90;66.20;15.80;102243.00;;;;5030686;28;20254;-76
2023/09/24 05:58:22;;;;;;;4.13;3.42;;;13.90;66.40;15.90;102247.00;;;;5027490;28;20192;-77
2023/09/24 06:00:50;;;;;;;4.70;3.53;;;14.00;66.30;15.90;102249.00;;;;5029077;28;20242;-77
2023/09/24 06:03:17;;;;;;;3.92;3.28;;;14.00;67.10;15.90;102253.00;;;;5027580;28;20235;-77
2023/09/24 06:05:44;;;;;;;4.88;3.45;;;14.00;66.40;15.90;102252.00;;;;5029774;28;20200;-77
2023/09/24 06:08:11;;;;;;;4.85;3.13;;;14.00;66.40;15.90;102256.00;;;;5028648;28;20196;-76
2023/09/24 06:10:44;;;;;;;5.13;3.72;;;14.00;66.50;15.90;102257.00;;;;5027498;28;20236;-78
2023/09/24 06:13:12;;;;;;;4.00;3.33;;;14.10;66.60;16.00;102259.00;;;;5026087;28;20273;-77
2023/09/24 06:15:41;;;;;;;4.53;3.95;;;14.10;66.60;16.00;102264.00;;;;5029072;28;20250;-76
2023/09/24 06:18:08;;;;;;;5.22;3.03;;;14.10;66.70;16.00;102261.00;;;;5029370;28;20258;-76
2023/09/24 06:20:39;;;;;;;7.78;4.30;;;14.10;66.80;16.00;102265.00;;;;5026862;28;20204;-77
2023/09/24 06:23:06;;;;;;;4.50;3.60;;;14.20;66.90;16.10;102267.00;;;;5027290;28;20224;-77
2023/09/24 06:25:33;;;;;;;3.63;3.28;;;14.20;67.60;16.10;102266.00;;;;5028974;28;20200;-77
2023/09/24 06:28:00;;;;;;;5.57;3.50;;;14.20;67.00;16.20;102267.00;;;;5026613;28;20204;-78
2023/09/24 06:30:28;;;;;;;5.80;3.13;;;14.30;67.10;16.20;102270.00;;;;5026889;28;20192;-77
2023/09/24 06:32:56;;;;;;;4.85;3.40;;;14.30;67.10;16.20;102276.00;;;;5036057;28;20211;-76
2023/09/24 06:35:23;;;;;;;4.72;3.15;;;14.40;67.30;16.30;102269.00;;;;5030263;28;20196;-76
2023/09/24 06:37:50;;;;;;;4.20;3.33;;;14.40;67.30;16.30;102278.00;;;;5029393;28;20263;-81
2023/09/24 06:40:17;;;;;;;4.57;3.50;;;14.50;67.40;16.40;102286.00;;;;5024767;28;20204;-80
2023/09/24 06:42:45;;;;;;;5.32;3.38;;;14.50;67.40;16.40;102290.00;;;;5029146;28;20247;-80
2023/09/24 06:45:12;;;;;;;5.13;3.50;;;14.50;67.40;16.50;102283.00;;;;5028100;28;20235;-80
2023/09/24 06:47:39;;;;;;;3.45;3.10;;;14.60;67.50;16.50;102294.00;;;;5031743;28;20201;-81
2023/09/24 06:50:10;;;;;;;4.80;3.40;;;14.60;67.40;16.50;102298.00;;;;5031740;28;20548;-82
2023/09/24 06:52:37;;;;;;;3.15;2.83;;;14.70;67.50;16.60;102294.00;;;;5033760;28;20193;-82
2023/09/24 06:55:08;;;;;;;5.55;3.10;;;14.70;67.30;16.60;102298.00;;;;5032857;28;20204;-82
2023/09/24 06:57:36;;;;;;;3.97;3.13;;;14.80;67.40;16.70;102307.00;;;;5028024;28;20270;-82
2023/09/24 07:00:05;;;;;;;5.57;2.97;;;14.80;67.30;16.70;102313.00;;;;5015490;28;20566;-81
2023/09/24 07:02:32;;;;;;;3.58;3.10;;;14.90;67.40;16.70;102315.00;;;;5030992;28;20253;-81
2023/09/24 07:04:59;;;;;;;3.42;3.13;;;14.80;67.30;16.80;102306.00;;;;5027332;28;20562;-79
2023/09/24 07:07:29;;;;;;;5.00;3.05;;;14.90;67.40;16.80;102312.00;;;;5027470;28;20203;-79
2023/09/24 07:09:56;;;;;;;4.88;3.10;;;14.90;67.40;16.80;102318.00;;;;5031491;28;20768;-80
2023/09/24 07:12:23;;;;;;;3.85;2.58;;;15.00;67.50;16.90;102321.00;;;;5029342;28;20223;-79
2023/09/24 07:14:50;;;;;;;5.90;3.35;;;15.10;67.60;17.00;102318.00;;;;5028610;28;20196;-78
2023/09/24 07:17:17;;;;;;;3.60;2.92;;;15.10;67.60;17.00;102316.00;;;;5028493;28;20667;-79
2023/09/24 07:19:45;;;;;;;3.30;3.00;;;15.10;67.70;17.10;102317.00;;;;5019992;28;20201;-79
2023/09/24 07:22:12;;;;;;;5.30;2.63;;;15.20;67.80;17.20;102314.00;;;;5027488;28;20216;-78
2023/09/24 07:24:41;;;;;;;4.65;2.65;;;15.20;67.90;17.20;102311.00;;;;5026894;28;20273;-79
2023/09/24 07:27:10;;;;;;;5.07;3.10;;;15.30;68.00;17.30;102308.00;;;;5026879;28;20203;-80
2023/09/24 07:29:37;;;;;;;3.60;2.65;;;15.40;68.00;17.40;102317.00;;;;5028709;28;20215;-79
2023/09/24 07:32:04;;;;;;;4.75;2.72;;;15.50;68.10;17.40;102319.00;;;;5025966;28;20188;-79
2023/09/24 07:34:31;;;;;;;3.28;2.55;;;15.50;68.10;17.50;102316.00;;;;5026842;28;20282;-79
2023/09/24 07:36:58;;;;;;;6.07;2.65;;;15.60;68.10;17.60;102313.00;;;;5025684;28;20669;-81
2023/09/24 07:39:25;;;;;;;5.15;2.30;;;15.70;68.10;17.70;102319.00;;;;5026787;28;20200;-80
2023/09/24 07:41:54;;;;;;;5.35;3.33;;;15.80;68.20;17.70;102321.00;;;;5025914;28;20977;-80
2023/09/24 07:44:21;;;;;;;3.15;2.65;;;15.90;68.20;17.80;102317.00;;;;5031802;28;20234;-79
2023/09/24 07:46:48;;;;;;;3.95;2.58;;;16.00;68.20;17.90;102316.00;;;;5025910;28;20200;-79
2023/09/24 07:49:15;;;;;;;3.05;2.38;;;16.00;68.20;18.00;102324.00;;;;5023819;28;20219;-80
2023/09/24 07:51:42;;;;;;;4.85;2.38;;;16.10;68.20;18.10;102324.00;;;;5033404;28;20199;-79
2023/09/24 07:54:09;;;;;;;4.18;2.42;;;16.20;68.10;18.20;102327.00;;;;5027714;28;20235;-79
2023/09/24 07:56:38;;;;;;;5.32;2.40;;;16.30;68.20;18.30;102328.00;;;;5027057;28;20200;-81
2023/09/24 07:59:06;;;;;;;3.38;1.92;;;16.40;68.20;18.30;102332.00;;;;5026119;28;20371;-77
2023/09/24 08:01:33;;;;;;;4.45;2.38;;;16.50;68.30;18.40;102328.00;;;;5025098;28;20208;-81
2023/09/24 08:04:01;;;;;;;6.45;2.50;;;16.60;68.20;18.50;102326.00;;;;5023689;28;20674;-80
2023/09/24 08:06:28;;;;;;;4.75;2.33;;;16.70;68.20;18.60;102327.00;;;;5026712;28;20204;-80
2023/09/24 08:08:56;;;;;;;2.22;1.77;;;16.70;68.00;18.60;102337.00;;;;5022286;28;20223;-80
2023/09/24 08:11:23;;;;;;;4.30;2.05;;;16.80;67.90;18.70;102345.00;;;;5025557;28;20235;-79
2023/09/24 08:13:51;;;;;;;8.00;2.03;;;16.90;67.90;18.80;102346.00;;;;5027311;28;20215;-82
2023/09/24 08:16:19;;;;;;;3.00;1.88;;;17.00;67.90;18.90;102341.00;;;;5024685;28;20200;-82
2023/09/24 08:18:48;;;;;;;2.65;1.85;;;17.10;67.70;19.00;102347.00;;;;5025934;28;20208;-79
2023/09/24 08:21:15;;;;;;;3.33;1.88;;;17.20;67.60;19.00;102338.00;;;;5028614;28;20204;-81
2023/09/24 08:23:42;;;;;;;2.40;1.60;;;17.30;67.50;19.10;102341.00;;;;5026633;28;20226;-80
2023/09/24 08:26:09;;;;;;;3.92;2.00;;;17.40;67.20;19.20;102337.00;;;;5027353;28;20196;-82
2023/09/24 08:28:36;;;;;;;3.63;1.58;;;17.40;67.20;19.30;102342.00;;;;5029654;28;20205;-83
2023/09/24 08:31:09;;;;;;;3.80;1.58;;;17.50;67.20;19.30;102346.00;;;;5030152;28;20565;-82
2023/09/24 08:33:38;;;;;;;3.67;1.73;;;17.60;66.80;19.40;102343.00;;;;5027749;28;21256;-83
2023/09/24 08:36:09;;;;;;;3.60;1.25;;;17.70;66.80;19.50;102347.00;;;;5030486;28;20255;-85
2023/09/24 08:38:36;;;;;;;2.13;1.10;;;17.80;66.90;19.60;102350.00;;;;5031348;28;20258;-83
2023/09/24 08:41:11;;;;;;;3.85;1.20;;;17.90;66.70;19.70;102352.00;;;;5031724;28;20207;-82
2023/09/24 08:43:42;;;;;;;3.83;1.13;;;18.00;66.70;19.80;102361.00;;;;5030689;28;20747;-84
2023/09/24 08:46:10;;;;;;;1.90;1.40;;;18.10;67.10;19.90;102355.00;;;;5030356;28;20657;-84
2023/09/24 08:48:40;;;;;;;2.33;1.10;;;18.10;66.30;20.00;102363.00;;;;5030342;28;20200;-84
2023/09/24 08:51:09;;;;;;;2.53;1.30;;;18.20;66.20;20.10;102356.00;;;;5026960;28;20196;-84
2023/09/24 08:53:37;;;;;;;4.00;1.20;;;18.40;66.30;20.20;102354.00;;;;5028297;28;20209;-83
2023/09/24 08:56:04;;;;;;;2.67;0.80;;;18.40;66.10;20.20;102356.00;;;;5029595;28;20199;-83
2023/09/24 08:58:31;;;;;;;2.88;1.50;;;18.50;65.90;20.30;102363.00;;;;5031079;28;20215;-84
2023/09/24 09:01:01;;;;;;;3.78;1.20;;;18.60;65.80;20.40;102357.00;;;;5032250;28;20204;-81
2023/09/24 09:03:29;;;;;;;2.10;1.05;;;18.70;65.60;20.50;102355.00;;;;5028841;28;20217;-82
2023/09/24 09:05:57;;;;;;;2.70;1.50;;;18.80;65.50;20.60;102353.00;;;;5031750;28;20283;-87
2023/09/24 09:08:24;;;;;;;2.55;1.30;;;18.90;65.40;20.70;102344.00;;;;5031123;28;20211;-84
2023/09/24 09:10:51;;;;;;;3.80;0.95;;;19.00;65.40;20.80;102345.00;;;;5029369;28;20235;-81
2023/09/24 09:13:20;;;;;;;3.28;0.95;;;19.10;65.40;20.90;102340.00;;;;5030797;28;20196;-82
2023/09/24 09:15:49;;;;;;;2.85;1.30;;;19.20;65.20;21.00;102341.00;;;;5028563;28;20204;-79
2023/09/24 09:18:24;;;;;;;3.17;1.25;;;19.30;65.00;21.10;102335.00;;;;5030313;28;20674;-84
2023/09/24 09:20:58;;;;;;;4.68;1.23;;;19.40;65.00;21.20;102340.00;;;;5027818;28;20210;-81
2023/09/24 09:23:36;;;;;;;1.35;0.82;;;19.50;65.00;21.20;102335.00;;;;5030301;28;20231;-82
2023/09/24 09:26:03;;;;;;;2.67;1.00;;;19.60;64.50;21.40;102337.00;;;;5032694;28;20207;-80
2023/09/24 09:28:31;;;;;;;3.00;0.98;;;19.80;64.80;21.50;102335.00;;;;5016787;28;20209;-77
2023/09/24 09:31:05;;;;;;;2.58;1.13;;;19.90;64.90;21.60;102336.00;;;;5029954;28;20298;-78
2023/09/24 09:33:36;;;;;;;3.78;1.15;;;20.00;64.80;21.70;102332.00;;;;5031028;28;21622;-78
2023/09/24 09:36:04;;;;;;;2.60;1.13;;;20.10;64.70;21.90;102337.00;;;;5029358;28;20227;-78
2023/09/24 09:38:32;;;;;;;2.08;0.90;;;20.20;64.80;22.00;102338.00;;;;5029860;28;20842;-79
2023/09/24 09:41:02;;;;;;;3.42;1.10;;;20.30;64.80;22.20;102327.00;;;;5029914;28;20196;-78
2023/09/24 09:43:30;;;;;;;5.47;1.10;;;20.50;64.80;22.30;102320.00;;;;5030665;28;20220;-80
2023/09/24 09:45:58;;;;;;;3.20;0.82;;;20.60;64.80;22.40;102315.00;;;;5030876;28;20717;-80
2023/09/24 09:48:31;;;;;;;1.40;0.82;;;20.70;64.40;22.50;102320.00;;;;5030376;28;20212;-80
2023/09/24 09:51:07;;;;;;;2.80;1.23;;;20.80;63.60;22.60;102313.00;;;;5031093;28;20201;-79
2023/09/24 09:53:38;;;;;;;10.07;1.00;;;20.90;63.00;22.70;102303.00;;;;5028281;28;20196;-79
2023/09/24 09:56:08;;;;;;;1.92;1.00;;;21.10;63.10;22.80;102306.00;;;;5028934;28;20195;-79
2023/09/24 09:58:37;;;;;;;2.33;1.15;;;21.20;63.10;22.90;102297.00;;;;5030611;28;20288;-80
2023/09/24 10:01:07;;;;;;;1.70;1.20;;;21.20;62.90;22.90;102299.00;;;;5029263;28;20193;-80
2023/09/24 10:03:39;;;;;;;3.58;1.20;;;21.40;62.80;23.00;102296.00;;;;5031170;28;20290;-80
2023/09/24 10:06:10;;;;;;;2.08;1.00;;;21.40;62.40;23.10;102301.00;;;;5030812;28;20250;-79
2023/09/24 10:08:47;;;;;;;1.70;0.75;;;21.50;62.20;23.10;102293.00;;;;5031507;28;20193;-79
2023/09/24 10:11:51;;;;;;;1.65;0.93;;;21.60;61.70;23.20;102288.00;;;;5030390;28;20224;-80
2023/09/24 10:14:33;;;;;;;2.72;0.90;;;21.70;60.60;23.30;102296.00;;;;5029008;28;20243;-80
2023/09/24 10:17:25;;;;;;;1.60;0.77;;;21.80;61.00;23.30;102299.00;;;;5027884;28;20224;-81
2023/09/24 10:19:54;;;;;;;3.03;0.90;;;21.90;60.50;23.50;102294.00;;;;5022945;28;20258;-80
2023/09/24 10:22:30;;;;;;;2.78;1.00;;;22.00;61.40;23.50;102299.00;;;;5028016;28;20216;-79
2023/09/24 10:25:00;;;;;;;3.00;0.90;;;22.10;60.60;23.70;102299.00;;;;5028955;28;20232;-81
2023/09/24 10:27:31;;;;;;;3.75;1.45;;;22.20;60.50;23.70;102296.00;;;;5029442;28;20192;-81
2023/09/24 10:30:07;;;;;;;1.45;0.65;;;22.30;60.10;23.80;102299.00;;;;5028720;28;20188;-79
2023/09/24 10:32:49;;;;;;;1.15;0.65;;;22.40;59.60;23.80;102297.00;;;;5029737;28;20271;-79
2023/09/24 10:35:17;;;;;;;3.10;1.00;;;22.40;59.00;24.00;102290.00;;;;5027963;28;20263;-79
2023/09/24 10:38:11;;;;;;;2.38;1.17;;;22.50;59.20;23.90;102288.00;;;;5026119;28;20275;-78
2023/09/24 10:41:05;;;;;;;5.40;0.90;;;22.50;58.40;24.00;102296.00;;;;4990191;28;20200;-80
2023/09/24 10:43:32;;;;;;;1.58;0.80;;;22.60;58.20;24.20;102296.00;;;;5028874;28;20220;-79
2023/09/24 10:46:26;;;;;;;1.55;0.68;;;22.70;59.00;24.10;102295.00;;;;5028296;28;20227;-79
2023/09/24 10:48:53;;;;;;;1.73;0.85;;;22.80;58.00;24.30;102297.00;;;;5028252;28;20820;-79
2023/09/24 10:51:21;;;;;;;2.75;0.93;;;22.90;58.80;24.40;102288.00;;;;5027039;28;20192;-81
2023/09/24 10:53:48;;;;;;;3.78;1.02;;;22.90;58.80;24.50;102286.00;;;;5028641;28;20199;-79
2023/09/24 10:56:17;;;;;;;2.00;1.00;;;23.00;58.70;24.60;102283.00;;;;5025757;28;20207;-81